createdAt,value
2017-08-10T00:00:33.693Z,0
2017-08-10T00:01:35.514Z,0
2017-08-10T00:02:37.335Z,0
2017-08-10T00:03:39.224Z,0
2017-08-10T00:04:41.082Z,0
2017-08-10T00:05:42.908Z,0
2017-08-10T00:06:57.063Z,0
2017-08-10T00:07:58.949Z,0
2017-08-10T00:09:00.835Z,0
2017-08-10T00:10:02.722Z,0
2017-08-10T00:11:04.544Z,0
2017-08-10T00:12:06.362Z,0
2017-08-10T00:13:08.250Z,0
2017-08-10T00:14:10.147Z,0
2017-08-10T00:15:12.032Z,0
2017-08-10T00:16:26.190Z,0
2017-08-10T00:17:28.082Z,0
2017-08-10T00:18:29.964Z,0
2017-08-10T00:19:31.849Z,0
2017-08-10T00:20:33.682Z,0
2017-08-10T00:21:35.514Z,0
2017-08-10T00:22:37.399Z,0
2017-08-10T00:23:39.288Z,0
2017-08-10T00:24:41.176Z,0
2017-08-10T00:25:55.331Z,0
2017-08-10T00:26:57.229Z,0
2017-08-10T00:27:59.113Z,0
2017-08-10T00:29:01.000Z,0
2017-08-10T00:30:02.821Z,0
2017-08-10T00:31:04.642Z,0
2017-08-10T00:32:06.534Z,0
2017-08-10T00:33:08.420Z,0
2017-08-10T00:34:10.307Z,0
2017-08-10T00:35:24.473Z,0
2017-08-10T00:36:26.358Z,0
2017-08-10T00:37:28.257Z,0
2017-08-10T00:38:30.140Z,0
2017-08-10T00:39:31.961Z,0
2017-08-10T00:40:33.786Z,0
2017-08-10T00:41:35.680Z,0
2017-08-10T00:42:37.561Z,0
2017-08-10T00:43:39.443Z,0
2017-08-10T00:44:53.602Z,0
2017-08-10T00:45:55.496Z,0
2017-08-10T00:46:57.383Z,0
2017-08-10T00:47:59.265Z,0
2017-08-10T00:49:01.093Z,0
2017-08-10T00:50:02.915Z,0
2017-08-10T00:51:04.804Z,0
2017-08-10T00:52:06.685Z,0
2017-08-10T00:53:08.568Z,0
2017-08-10T00:54:22.725Z,0
2017-08-10T00:55:24.604Z,0
2017-08-10T00:56:26.488Z,0
2017-08-10T00:57:28.370Z,0
2017-08-10T00:58:30.191Z,0
2017-08-10T00:59:32.012Z,0
2017-08-10T01:00:33.894Z,0
2017-08-10T01:01:35.780Z,0
2017-08-10T01:02:37.662Z,0
2017-08-10T01:03:51.818Z,0
2017-08-10T01:04:53.705Z,0
2017-08-10T01:05:55.580Z,0
2017-08-10T01:06:57.462Z,0
2017-08-10T01:07:59.283Z,0
2017-08-10T01:09:01.113Z,0
2017-08-10T01:10:02.995Z,0
2017-08-10T01:11:04.882Z,0
2017-08-10T01:12:06.765Z,0
2017-08-10T01:13:20.919Z,0
2017-08-10T01:14:22.799Z,0
2017-08-10T01:15:24.681Z,0
2017-08-10T01:16:26.562Z,0
2017-08-10T01:17:28.385Z,0
2017-08-10T01:18:30.216Z,0
2017-08-10T01:19:32.097Z,0
2017-08-10T01:20:33.981Z,0
2017-08-10T01:21:35.863Z,0
2017-08-10T01:22:50.021Z,0
2017-08-10T01:23:51.902Z,0
2017-08-10T01:24:53.783Z,0
2017-08-10T01:25:55.668Z,0
2017-08-10T01:26:57.496Z,0
2017-08-10T01:27:59.312Z,0
2017-08-10T01:29:01.193Z,0
2017-08-10T01:30:03.086Z,0
2017-08-10T01:31:04.968Z,0
2017-08-10T01:32:19.130Z,0
2017-08-10T01:33:21.005Z,0
2017-08-10T01:34:22.894Z,0
2017-08-10T01:35:24.769Z,0
2017-08-10T01:36:26.590Z,0
2017-08-10T01:37:28.422Z,0
2017-08-10T01:38:30.303Z,0
2017-08-10T01:39:32.194Z,0
2017-08-10T01:40:34.077Z,0
2017-08-10T01:41:48.237Z,0
2017-08-10T01:42:50.119Z,0
2017-08-10T01:43:52.000Z,0
2017-08-10T01:44:53.882Z,0
2017-08-10T01:45:55.702Z,0
2017-08-10T01:46:57.533Z,0
2017-08-10T01:47:59.417Z,0
2017-08-10T01:49:01.304Z,0
2017-08-10T01:50:03.185Z,0
2017-08-10T01:51:17.358Z,0
2017-08-10T01:52:19.238Z,0
2017-08-10T01:53:21.136Z,0
2017-08-10T01:54:23.020Z,0
2017-08-10T01:55:24.846Z,0
2017-08-10T01:56:26.670Z,0
2017-08-10T01:57:28.560Z,0
2017-08-10T01:58:30.455Z,0
2017-08-10T01:59:32.339Z,0
2017-08-10T02:00:46.499Z,0
2017-08-10T02:01:48.385Z,0
2017-08-10T02:02:50.270Z,0
2017-08-10T02:03:52.165Z,0
2017-08-10T02:04:54.038Z,0
2017-08-10T02:05:55.861Z,0
2017-08-10T02:06:57.695Z,0
2017-08-10T02:07:59.577Z,0
2017-08-10T02:09:01.462Z,0
2017-08-10T02:10:15.681Z,0
2017-08-10T02:11:17.578Z,0
2017-08-10T02:12:19.469Z,0
2017-08-10T02:13:21.364Z,0
2017-08-10T02:14:23.198Z,0
2017-08-10T02:15:25.024Z,0
2017-08-10T02:16:26.906Z,0
2017-08-10T02:17:28.786Z,0
2017-08-10T02:18:30.670Z,0
2017-08-10T02:19:44.854Z,0
2017-08-10T02:20:46.731Z,0
2017-08-10T02:21:48.622Z,0
2017-08-10T02:22:50.505Z,0
2017-08-10T02:23:52.327Z,0
2017-08-10T02:24:54.152Z,0
2017-08-10T02:25:56.042Z,0
2017-08-10T02:26:57.918Z,0
2017-08-10T02:27:59.803Z,0
2017-08-10T02:29:13.984Z,0
2017-08-10T02:30:15.863Z,0
2017-08-10T02:31:17.756Z,0
2017-08-10T02:32:19.651Z,0
2017-08-10T02:33:21.909Z,0
2017-08-10T02:34:23.758Z,0
2017-08-10T02:35:25.646Z,0
2017-08-10T02:36:27.521Z,0
2017-08-10T02:37:29.405Z,0
2017-08-10T02:38:43.567Z,0
2017-08-10T02:39:45.449Z,0
2017-08-10T02:40:47.667Z,0
2017-08-10T02:41:49.568Z,0
2017-08-10T02:42:51.390Z,0
2017-08-10T02:43:53.213Z,0
2017-08-10T02:44:55.093Z,0
2017-08-10T02:45:56.937Z,0
2017-08-10T02:46:58.767Z,0
2017-08-10T02:48:12.986Z,0
2017-08-10T02:49:14.872Z,0
2017-08-10T02:50:16.755Z,0
2017-08-10T02:51:18.638Z,0
2017-08-10T02:52:20.474Z,0
2017-08-10T02:53:22.309Z,0
2017-08-10T02:54:24.194Z,0
2017-08-10T02:55:26.077Z,0
2017-08-10T02:56:27.960Z,0
2017-08-10T02:57:42.119Z,0
2017-08-10T02:58:44.015Z,0
2017-08-10T02:59:45.908Z,0
2017-08-10T03:00:47.793Z,0
2017-08-10T03:01:49.613Z,0
2017-08-10T03:02:51.448Z,0
2017-08-10T03:03:53.330Z,0
2017-08-10T03:04:55.210Z,0
2017-08-10T03:05:57.094Z,0
2017-08-10T03:07:11.252Z,0
2017-08-10T03:08:13.150Z,0
2017-08-10T03:09:15.031Z,0
2017-08-10T03:10:16.915Z,0
2017-08-10T03:11:18.737Z,4
2017-08-10T03:12:20.571Z,4
2017-08-10T03:13:22.417Z,4
2017-08-10T03:14:24.260Z,4
2017-08-10T03:15:26.084Z,4
2017-08-10T03:16:40.251Z,4
2017-08-10T03:17:42.136Z,8
2017-08-10T03:18:44.029Z,8
2017-08-10T03:19:45.925Z,12
2017-08-10T03:20:47.751Z,12
2017-08-10T03:21:49.572Z,20
2017-08-10T03:22:51.467Z,20
2017-08-10T03:23:53.362Z,20
2017-08-10T03:24:55.246Z,20
2017-08-10T03:26:09.405Z,24
2017-08-10T03:27:11.301Z,28
2017-08-10T03:28:13.184Z,28
2017-08-10T03:29:15.068Z,32
2017-08-10T03:30:16.902Z,36
2017-08-10T03:31:18.727Z,44
2017-08-10T03:32:20.570Z,40
2017-08-10T03:33:22.392Z,44
2017-08-10T03:34:24.216Z,48
2017-08-10T03:35:38.413Z,56
2017-08-10T03:36:40.298Z,64
2017-08-10T03:37:42.191Z,56
2017-08-10T03:38:44.077Z,56
2017-08-10T03:39:45.899Z,64
2017-08-10T03:40:47.735Z,68
2017-08-10T03:41:49.618Z,72
2017-08-10T03:42:51.499Z,76
2017-08-10T03:43:53.395Z,92
2017-08-10T03:45:07.558Z,100
2017-08-10T03:46:09.445Z,112
2017-08-10T03:47:11.329Z,120
2017-08-10T03:48:13.225Z,144
2017-08-10T03:49:15.061Z,192
2017-08-10T03:50:16.888Z,228
2017-08-10T03:51:18.782Z,272
2017-08-10T03:52:20.680Z,348
2017-08-10T03:53:22.569Z,388
2017-08-10T03:54:36.730Z,472
2017-08-10T03:55:38.632Z,512
2017-08-10T03:56:40.518Z,568
2017-08-10T03:57:42.405Z,628
2017-08-10T03:58:44.243Z,688
2017-08-10T03:59:46.069Z,768
2017-08-10T04:00:47.954Z,848
2017-08-10T04:01:49.840Z,920
2017-08-10T04:02:51.726Z,992
2017-08-10T04:04:05.902Z,1120
2017-08-10T04:05:07.790Z,1180
2017-08-10T04:06:09.685Z,1112
2017-08-10T04:07:11.574Z,1064
2017-08-10T04:08:13.401Z,1024
2017-08-10T04:09:15.228Z,972
2017-08-10T04:10:17.127Z,940
2017-08-10T04:11:19.021Z,968
2017-08-10T04:12:20.920Z,984
2017-08-10T04:13:35.084Z,1036
2017-08-10T04:14:36.974Z,1116
2017-08-10T04:15:38.861Z,1220
2017-08-10T04:16:40.748Z,1332
2017-08-10T04:17:42.575Z,1472
2017-08-10T04:18:44.414Z,1428
2017-08-10T04:19:46.301Z,1524
2017-08-10T04:20:48.188Z,1580
2017-08-10T04:21:50.087Z,1580
2017-08-10T04:23:04.251Z,1656
2017-08-10T04:24:06.140Z,1640
2017-08-10T04:25:08.038Z,1572
2017-08-10T04:26:09.937Z,1556
2017-08-10T04:27:11.820Z,1536
2017-08-10T04:28:13.653Z,1416
2017-08-10T04:29:15.539Z,1336
2017-08-10T04:30:17.424Z,1244
2017-08-10T04:31:19.312Z,1220
2017-08-10T04:32:33.477Z,1344
2017-08-10T04:33:35.364Z,1468
2017-08-10T04:34:37.253Z,1476
2017-08-10T04:35:39.143Z,1436
2017-08-10T04:36:40.967Z,1404
2017-08-10T04:37:42.795Z,1424
2017-08-10T04:38:44.693Z,1488
2017-08-10T04:39:46.582Z,1700
2017-08-10T04:40:48.466Z,2072
2017-08-10T04:42:02.640Z,3064
2017-08-10T04:43:04.531Z,3540
2017-08-10T04:44:06.422Z,3416
2017-08-10T04:45:08.313Z,2716
2017-08-10T04:46:10.137Z,2424
2017-08-10T04:47:11.977Z,2292
2017-08-10T04:48:13.864Z,2396
2017-08-10T04:49:15.749Z,2832
2017-08-10T04:50:17.639Z,2960
2017-08-10T04:51:31.817Z,2728
2017-08-10T04:52:33.705Z,2780
2017-08-10T04:53:35.593Z,3212
2017-08-10T04:54:37.487Z,3200
2017-08-10T04:55:39.313Z,3252
2017-08-10T04:56:41.139Z,2832
2017-08-10T04:57:43.027Z,3164
2017-08-10T04:58:44.911Z,3192
2017-08-10T04:59:46.811Z,3028
2017-08-10T05:01:00.987Z,2876
2017-08-10T05:02:02.878Z,3032
2017-08-10T05:03:04.760Z,3104
2017-08-10T05:04:06.648Z,2936
2017-08-10T05:05:08.487Z,3108
2017-08-10T05:06:10.316Z,3108
2017-08-10T05:07:12.203Z,3300
2017-08-10T05:08:14.090Z,3364
2017-08-10T05:09:16.011Z,3336
2017-08-10T05:10:30.162Z,3196
2017-08-10T05:11:32.052Z,3328
2017-08-10T05:12:33.945Z,3420
2017-08-10T05:13:35.833Z,3372
2017-08-10T05:14:37.662Z,3260
2017-08-10T05:15:39.782Z,3196
2017-08-10T05:16:41.651Z,3088
2017-08-10T05:17:43.550Z,3016
2017-08-10T05:18:45.439Z,2796
2017-08-10T05:19:59.608Z,2860
2017-08-10T05:21:01.494Z,2804
2017-08-10T05:22:03.380Z,2656
2017-08-10T05:23:05.269Z,2600
2017-08-10T05:24:07.108Z,2720
2017-08-10T05:25:09.405Z,2948
2017-08-10T05:26:11.274Z,3108
2017-08-10T05:27:13.161Z,2992
2017-08-10T05:28:15.067Z,3140
2017-08-10T05:29:29.230Z,3372
2017-08-10T05:30:31.121Z,3792
2017-08-10T05:31:33.023Z,3704
2017-08-10T05:32:34.916Z,3296
2017-08-10T05:33:36.745Z,2816
2017-08-10T05:34:38.575Z,2896
2017-08-10T05:35:40.464Z,2852
2017-08-10T05:36:42.360Z,2680
2017-08-10T05:37:44.270Z,2692
2017-08-10T05:38:58.444Z,3080
2017-08-10T05:40:00.332Z,2836
2017-08-10T05:41:02.226Z,2768
2017-08-10T05:42:04.117Z,2604
2017-08-10T05:43:05.957Z,2408
2017-08-10T05:44:07.797Z,2284
2017-08-10T05:45:09.673Z,2348
2017-08-10T05:46:11.572Z,2340
2017-08-10T05:47:13.473Z,2596
2017-08-10T05:48:27.687Z,2732
2017-08-10T05:49:29.584Z,2704
2017-08-10T05:50:31.470Z,2848
2017-08-10T05:51:33.375Z,2744
2017-08-10T05:52:35.200Z,2648
2017-08-10T05:53:37.032Z,2744
2017-08-10T05:54:38.938Z,2872
2017-08-10T05:55:40.833Z,2756
2017-08-10T05:56:42.720Z,2784
2017-08-10T05:57:56.903Z,2700
2017-08-10T05:58:58.788Z,2596
2017-08-10T06:00:00.688Z,2488
2017-08-10T06:01:02.582Z,2592
2017-08-10T06:02:04.409Z,2552
2017-08-10T06:03:06.238Z,2960
2017-08-10T06:04:08.139Z,2668
2017-08-10T06:05:10.026Z,2476
2017-08-10T06:06:11.918Z,2520
2017-08-10T06:07:26.084Z,2340
2017-08-10T06:08:27.980Z,2644
2017-08-10T06:09:29.866Z,2816
2017-08-10T06:10:31.775Z,2888
2017-08-10T06:11:33.597Z,3180
2017-08-10T06:12:35.426Z,3192
2017-08-10T06:13:37.315Z,3308
2017-08-10T06:14:39.217Z,3384
2017-08-10T06:15:41.105Z,3752
2017-08-10T06:16:55.270Z,3308
2017-08-10T06:17:57.162Z,2892
2017-08-10T06:18:59.057Z,3400
2017-08-10T06:20:00.959Z,3416
2017-08-10T06:21:02.798Z,3636
2017-08-10T06:22:04.622Z,3224
2017-08-10T06:23:06.508Z,2928
2017-08-10T06:24:08.401Z,3216
2017-08-10T06:25:10.294Z,3024
2017-08-10T06:26:24.457Z,3292
2017-08-10T06:27:26.349Z,3664
2017-08-10T06:28:28.250Z,3344
2017-08-10T06:29:30.144Z,3164
2017-08-10T06:30:31.974Z,3284
2017-08-10T06:31:33.801Z,3488
2017-08-10T06:32:35.703Z,3552
2017-08-10T06:33:37.591Z,3868
2017-08-10T06:34:39.483Z,3968
2017-08-10T06:35:53.644Z,3192
2017-08-10T06:36:55.535Z,3404
2017-08-10T06:37:57.443Z,3872
2017-08-10T06:38:59.347Z,3744
2017-08-10T06:40:01.194Z,3612
2017-08-10T06:41:03.014Z,3588
2017-08-10T06:42:04.900Z,4060
2017-08-10T06:43:06.794Z,4276
2017-08-10T06:44:08.683Z,3764
2017-08-10T06:45:22.907Z,4620
2017-08-10T06:46:24.800Z,4276
2017-08-10T06:47:26.688Z,4116
2017-08-10T06:48:28.591Z,3956
2017-08-10T06:49:30.416Z,3956
2017-08-10T06:50:32.271Z,4380
2017-08-10T06:51:34.159Z,4596
2017-08-10T06:52:36.049Z,4624
2017-08-10T06:53:37.953Z,4832
2017-08-10T06:54:52.132Z,4876
2017-08-10T06:55:54.022Z,4852
2017-08-10T06:56:55.916Z,4956
2017-08-10T06:57:57.811Z,5144
2017-08-10T06:58:59.640Z,5624
2017-08-10T07:00:01.470Z,5744
2017-08-10T07:01:03.364Z,5340
2017-08-10T07:02:05.254Z,4852
2017-08-10T07:03:07.152Z,4348
2017-08-10T07:04:21.312Z,4316
2017-08-10T07:05:23.203Z,4588
2017-08-10T07:06:25.091Z,4452
2017-08-10T07:07:26.983Z,4556
2017-08-10T07:08:28.814Z,4348
2017-08-10T07:09:30.647Z,3960
2017-08-10T07:10:32.542Z,3912
2017-08-10T07:11:34.441Z,3816
2017-08-10T07:12:36.336Z,3900
2017-08-10T07:13:50.499Z,4300
2017-08-10T07:14:52.391Z,4340
2017-08-10T07:15:54.284Z,4392
2017-08-10T07:16:56.169Z,4524
2017-08-10T07:17:57.994Z,4592
2017-08-10T07:18:59.821Z,4396
2017-08-10T07:20:01.711Z,4628
2017-08-10T07:21:03.595Z,4292
2017-08-10T07:22:05.483Z,4412
2017-08-10T07:23:19.646Z,4816
2017-08-10T07:24:21.537Z,5328
2017-08-10T07:25:23.436Z,5532
2017-08-10T07:26:25.327Z,5636
2017-08-10T07:27:27.159Z,5768
2017-08-10T07:28:28.989Z,5932
2017-08-10T07:29:30.884Z,5856
2017-08-10T07:30:32.764Z,5860
2017-08-10T07:31:34.652Z,6176
2017-08-10T07:32:48.871Z,6092
2017-08-10T07:33:50.761Z,6160
2017-08-10T07:34:52.659Z,6412
2017-08-10T07:35:54.559Z,6624
2017-08-10T07:36:56.390Z,6904
2017-08-10T07:37:58.220Z,6808
2017-08-10T07:39:00.120Z,6488
2017-08-10T07:40:02.008Z,6204
2017-08-10T07:41:03.902Z,6248
2017-08-10T07:42:18.067Z,6224
2017-08-10T07:43:19.958Z,6484
2017-08-10T07:44:21.860Z,6208
2017-08-10T07:45:23.752Z,5996
2017-08-10T07:46:25.583Z,6284
2017-08-10T07:47:27.412Z,6244
2017-08-10T07:48:29.302Z,6080
2017-08-10T07:49:31.190Z,6128
2017-08-10T07:50:33.094Z,6620
2017-08-10T07:51:47.258Z,6608
2017-08-10T07:52:49.150Z,6340
2017-08-10T07:53:51.052Z,6328
2017-08-10T07:54:52.956Z,6452
2017-08-10T07:55:54.772Z,6664
2017-08-10T07:56:56.614Z,6540
2017-08-10T07:57:58.508Z,6256
2017-08-10T07:59:00.399Z,6200
2017-08-10T08:00:02.403Z,6168
2017-08-10T08:01:16.572Z,6012
2017-08-10T08:02:18.468Z,5764
2017-08-10T08:03:20.362Z,6044
2017-08-10T08:04:22.256Z,6656
2017-08-10T08:05:24.085Z,6744
2017-08-10T08:06:25.924Z,6284
2017-08-10T08:07:27.809Z,6420
2017-08-10T08:08:29.702Z,6380
2017-08-10T08:09:31.596Z,7144
2017-08-10T08:10:45.761Z,7584
2017-08-10T08:11:47.657Z,6828
2017-08-10T08:12:49.560Z,6244
2017-08-10T08:13:51.456Z,6124
2017-08-10T08:14:53.285Z,6348
2017-08-10T08:15:55.116Z,6376
2017-08-10T08:16:57.009Z,6376
2017-08-10T08:17:58.899Z,6356
2017-08-10T08:19:00.793Z,6360
2017-08-10T08:20:15.009Z,5952
2017-08-10T08:21:16.943Z,6492
2017-08-10T08:22:18.820Z,7436
2017-08-10T08:23:20.715Z,8148
2017-08-10T08:24:22.543Z,7680
2017-08-10T08:25:24.374Z,7548
2017-08-10T08:26:26.287Z,7144
2017-08-10T08:27:28.169Z,7016
2017-08-10T08:28:30.066Z,7052
2017-08-10T08:29:44.233Z,7544
2017-08-10T08:30:46.143Z,7568
2017-08-10T08:31:48.030Z,7112
2017-08-10T08:32:49.934Z,6920
2017-08-10T08:33:51.763Z,6720
2017-08-10T08:34:53.605Z,5312
2017-08-10T08:35:55.498Z,5408
2017-08-10T08:36:57.397Z,6400
2017-08-10T08:37:59.314Z,6552
2017-08-10T08:39:13.492Z,7168
2017-08-10T08:40:15.376Z,7744
2017-08-10T08:41:17.269Z,7824
2017-08-10T08:42:19.162Z,7144
2017-08-10T08:43:20.990Z,7096
2017-08-10T08:44:22.821Z,7500
2017-08-10T08:45:24.713Z,7172
2017-08-10T08:46:26.604Z,7124
2017-08-10T08:47:28.497Z,7308
2017-08-10T08:48:42.675Z,8012
2017-08-10T08:49:44.568Z,8068
2017-08-10T08:50:46.470Z,8144
2017-08-10T08:51:48.367Z,7840
2017-08-10T08:52:50.195Z,7708
2017-08-10T08:53:52.024Z,7696
2017-08-10T08:54:53.920Z,8032
2017-08-10T08:55:55.816Z,7692
2017-08-10T08:56:57.709Z,8356
2017-08-10T08:58:11.927Z,7936
2017-08-10T08:59:13.823Z,7620
2017-08-10T09:00:15.713Z,7188
2017-08-10T09:01:17.607Z,6464
2017-08-10T09:02:19.436Z,6480
2017-08-10T09:03:21.265Z,6812
2017-08-10T09:04:23.158Z,6640
2017-08-10T09:05:25.049Z,6540
2017-08-10T09:06:26.948Z,6928
2017-08-10T09:07:41.111Z,7152
2017-08-10T09:08:43.000Z,6884
2017-08-10T09:09:44.901Z,6696
2017-08-10T09:10:46.807Z,6232
2017-08-10T09:11:48.633Z,5996
2017-08-10T09:12:50.477Z,5656
2017-08-10T09:13:52.306Z,5452
2017-08-10T09:14:54.205Z,5284
2017-08-10T09:15:56.096Z,5152
2017-08-10T09:17:10.263Z,5196
2017-08-10T09:18:12.156Z,5208
2017-08-10T09:19:14.059Z,5544
2017-08-10T09:20:15.952Z,6104
2017-08-10T09:21:17.783Z,6128
2017-08-10T09:22:19.612Z,5716
2017-08-10T09:23:21.516Z,5548
2017-08-10T09:24:23.411Z,5676
2017-08-10T09:25:25.306Z,5496
2017-08-10T09:26:39.470Z,5588
2017-08-10T09:27:41.364Z,5852
2017-08-10T09:28:43.268Z,5828
2017-08-10T09:29:45.166Z,5760
2017-08-10T09:30:46.992Z,5696
2017-08-10T09:31:48.823Z,5532
2017-08-10T09:32:50.721Z,5272
2017-08-10T09:33:52.611Z,5176
2017-08-10T09:34:54.508Z,5404
2017-08-10T09:36:08.679Z,5608
2017-08-10T09:37:10.572Z,5648
2017-08-10T09:38:12.474Z,5692
2017-08-10T09:39:14.369Z,5748
2017-08-10T09:40:16.199Z,5808
2017-08-10T09:41:18.031Z,5792
2017-08-10T09:42:19.926Z,5896
2017-08-10T09:43:21.819Z,5800
2017-08-10T09:44:23.712Z,5692
2017-08-10T09:45:37.931Z,5840
2017-08-10T09:46:39.825Z,6376
2017-08-10T09:47:41.716Z,6760
2017-08-10T09:48:43.621Z,7204
2017-08-10T09:49:45.451Z,7972
2017-08-10T09:50:47.283Z,9872
2017-08-10T09:51:49.177Z,12060
2017-08-10T09:52:51.071Z,14196
2017-08-10T09:53:52.981Z,15152
2017-08-10T09:55:07.147Z,14952
2017-08-10T09:56:09.043Z,13316
2017-08-10T09:57:10.946Z,10988
2017-08-10T09:58:12.849Z,10508
2017-08-10T09:59:14.680Z,11096
2017-08-10T10:00:16.511Z,11176
2017-08-10T10:01:18.403Z,11292
2017-08-10T10:02:20.296Z,11772
2017-08-10T10:03:22.193Z,11672
2017-08-10T10:04:36.362Z,11664
2017-08-10T10:05:38.260Z,11732
2017-08-10T10:06:40.164Z,11580
2017-08-10T10:07:42.070Z,11168
2017-08-10T10:08:43.901Z,10880
2017-08-10T10:09:45.737Z,11276
2017-08-10T10:10:47.627Z,11916
2017-08-10T10:11:49.524Z,11712
2017-08-10T10:12:51.422Z,12660
2017-08-10T10:14:05.588Z,13916
2017-08-10T10:15:07.485Z,15124
2017-08-10T10:16:09.390Z,15420
2017-08-10T10:17:11.297Z,15616
2017-08-10T10:18:13.130Z,15304
2017-08-10T10:19:14.961Z,15020
2017-08-10T10:20:16.870Z,14752
2017-08-10T10:21:18.763Z,14672
2017-08-10T10:22:20.663Z,14184
2017-08-10T10:23:34.832Z,13452
2017-08-10T10:24:36.730Z,13940
2017-08-10T10:25:38.626Z,14764
2017-08-10T10:26:40.532Z,15160
2017-08-10T10:27:42.365Z,15124
2017-08-10T10:28:44.200Z,15704
2017-08-10T10:29:46.117Z,15852
2017-08-10T10:30:47.993Z,15568
2017-08-10T10:31:49.887Z,14796
2017-08-10T10:33:04.068Z,13956
2017-08-10T10:34:05.967Z,13264
2017-08-10T10:35:07.872Z,12496
2017-08-10T10:36:09.767Z,11520
2017-08-10T10:37:11.600Z,11440
2017-08-10T10:38:13.474Z,13100
2017-08-10T10:39:15.308Z,15544
2017-08-10T10:40:17.201Z,16056
2017-08-10T10:41:19.098Z,14612
2017-08-10T10:42:33.273Z,13976
2017-08-10T10:43:35.178Z,13992
2017-08-10T10:44:37.068Z,13444
2017-08-10T10:45:38.975Z,13040
2017-08-10T10:46:40.808Z,13440
2017-08-10T10:47:42.641Z,14280
2017-08-10T10:48:44.535Z,14156
2017-08-10T10:49:46.432Z,12264
2017-08-10T10:50:48.330Z,10780
2017-08-10T10:52:02.497Z,10548
2017-08-10T10:53:04.395Z,9932
2017-08-10T10:54:06.288Z,9612
2017-08-10T10:55:08.184Z,9960
2017-08-10T10:56:10.024Z,11028
2017-08-10T10:57:11.850Z,11776
2017-08-10T10:58:13.750Z,11824
2017-08-10T10:59:15.642Z,11404
2017-08-10T11:00:17.539Z,12040
2017-08-10T11:01:31.708Z,13340
2017-08-10T11:02:33.602Z,13300
2017-08-10T11:03:35.497Z,12084
2017-08-10T11:04:37.395Z,10964
2017-08-10T11:05:39.231Z,10788
2017-08-10T11:06:41.061Z,11380
2017-08-10T11:07:42.958Z,12264
2017-08-10T11:08:44.852Z,12320
2017-08-10T11:09:46.757Z,11136
2017-08-10T11:11:00.928Z,10860
2017-08-10T11:12:02.826Z,11764
2017-08-10T11:13:04.721Z,11388
2017-08-10T11:14:06.625Z,9888
2017-08-10T11:15:08.454Z,8616
2017-08-10T11:16:10.295Z,8628
2017-08-10T11:17:12.189Z,8524
2017-08-10T11:18:14.093Z,7484
2017-08-10T11:19:15.978Z,7092
2017-08-10T11:20:30.159Z,7112
2017-08-10T11:21:32.056Z,7984
2017-08-10T11:22:33.949Z,9140
2017-08-10T11:23:35.857Z,10036
2017-08-10T11:24:37.688Z,10196
2017-08-10T11:25:39.521Z,10208
2017-08-10T11:26:41.417Z,10200
2017-08-10T11:27:43.311Z,10948
2017-08-10T11:28:45.206Z,11368
2017-08-10T11:29:59.380Z,11192
2017-08-10T11:31:01.275Z,11300
2017-08-10T11:32:03.170Z,12284
2017-08-10T11:33:05.076Z,13484
2017-08-10T11:34:06.910Z,13128
2017-08-10T11:35:08.744Z,12980
2017-08-10T11:36:10.664Z,12900
2017-08-10T11:37:12.581Z,12888
2017-08-10T11:38:14.477Z,13120
2017-08-10T11:39:28.648Z,13572
2017-08-10T11:40:30.544Z,12672
2017-08-10T11:41:32.450Z,10792
2017-08-10T11:42:34.349Z,10796
2017-08-10T11:43:36.177Z,11852
2017-08-10T11:44:38.033Z,11764
2017-08-10T11:45:39.935Z,11000
2017-08-10T11:46:41.841Z,10552
2017-08-10T11:47:43.738Z,10464
2017-08-10T11:48:57.906Z,10412
2017-08-10T11:49:59.807Z,10236
2017-08-10T11:51:01.697Z,9684
2017-08-10T11:52:03.593Z,8876
2017-08-10T11:53:05.426Z,7364
2017-08-10T11:54:07.256Z,5976
2017-08-10T11:55:09.150Z,5640
2017-08-10T11:56:11.087Z,5672
2017-08-10T11:57:12.967Z,5280
2017-08-10T11:58:27.145Z,5056
2017-08-10T11:59:29.109Z,5088
2017-08-10T12:00:31.003Z,5192
2017-08-10T12:01:32.902Z,5428
2017-08-10T12:02:34.731Z,5604
2017-08-10T12:03:36.667Z,6020
2017-08-10T12:04:38.549Z,6552
2017-08-10T12:05:40.447Z,6700
2017-08-10T12:06:42.345Z,6740
2017-08-10T12:07:56.526Z,6464
2017-08-10T12:08:58.404Z,6200
2017-08-10T12:10:00.308Z,6456
2017-08-10T12:11:02.209Z,7048
2017-08-10T12:12:04.045Z,7308
2017-08-10T12:13:05.877Z,7048
2017-08-10T12:14:07.773Z,7080
2017-08-10T12:15:09.667Z,7584
2017-08-10T12:16:11.576Z,8356
2017-08-10T12:17:25.784Z,8828
2017-08-10T12:18:27.682Z,9380
2017-08-10T12:19:29.580Z,9764
2017-08-10T12:20:31.474Z,10220
2017-08-10T12:21:33.308Z,10876
2017-08-10T12:22:35.153Z,11328
2017-08-10T12:23:37.043Z,10960
2017-08-10T12:24:38.941Z,10544
2017-08-10T12:25:40.837Z,10336
2017-08-10T12:26:55.054Z,9624
2017-08-10T12:27:57.027Z,10160
2017-08-10T12:28:58.913Z,11104
2017-08-10T12:30:00.811Z,11220
2017-08-10T12:31:02.648Z,10216
2017-08-10T12:32:04.480Z,9204
2017-08-10T12:33:06.375Z,8640
2017-08-10T12:34:08.267Z,8692
2017-08-10T12:35:10.168Z,9016
2017-08-10T12:36:24.337Z,8940
2017-08-10T12:37:26.237Z,9188
2017-08-10T12:38:28.127Z,8288
2017-08-10T12:39:30.029Z,8832
2017-08-10T12:40:31.875Z,9448
2017-08-10T12:41:33.730Z,9368
2017-08-10T12:42:35.949Z,9224
2017-08-10T12:43:37.835Z,9472
2017-08-10T12:44:39.757Z,10152
2017-08-10T12:45:53.980Z,10608
2017-08-10T12:46:55.912Z,9848
2017-08-10T12:47:58.182Z,10248
2017-08-10T12:49:00.086Z,9860
2017-08-10T12:50:01.918Z,8600
2017-08-10T12:51:03.760Z,8624
2017-08-10T12:52:05.665Z,9144
2017-08-10T12:53:07.542Z,9248
2017-08-10T12:54:09.374Z,8920
2017-08-10T12:55:23.542Z,8132
2017-08-10T12:56:25.466Z,7168
2017-08-10T12:57:27.376Z,6156
2017-08-10T12:58:29.347Z,5992
2017-08-10T12:59:31.218Z,5864
2017-08-10T13:00:33.370Z,5324
2017-08-10T13:01:35.857Z,4820
2017-08-10T13:02:37.736Z,4536
2017-08-10T13:03:39.645Z,4604
2017-08-10T13:04:54.190Z,4916
2017-08-10T13:05:56.124Z,4936
2017-08-10T13:06:58.335Z,5076
2017-08-10T13:08:00.203Z,5268
2017-08-10T13:09:02.351Z,5260
2017-08-10T13:10:04.171Z,5092
2017-08-10T13:11:06.082Z,5020
2017-08-10T13:12:08.287Z,5324
2017-08-10T13:13:10.209Z,5324
2017-08-10T13:14:24.548Z,4980
2017-08-10T13:15:26.454Z,5072
2017-08-10T13:16:28.363Z,4752
2017-08-10T13:17:30.942Z,4836
2017-08-10T13:18:33.174Z,4944
2017-08-10T13:19:35.045Z,5372
2017-08-10T13:20:36.940Z,5420
2017-08-10T13:21:38.849Z,6064
2017-08-10T13:22:40.748Z,7172
2017-08-10T13:23:54.916Z,8468
2017-08-10T13:24:56.809Z,8472
2017-08-10T13:25:58.701Z,7956
2017-08-10T13:27:00.598Z,7700
2017-08-10T13:28:02.429Z,7404
2017-08-10T13:29:04.264Z,7352
2017-08-10T13:30:06.156Z,7484
2017-08-10T13:31:08.054Z,8456
2017-08-10T13:32:09.949Z,8084
2017-08-10T13:33:24.134Z,7980
2017-08-10T13:34:26.015Z,8340
2017-08-10T13:35:27.908Z,8344
2017-08-10T13:36:29.805Z,7296
2017-08-10T13:37:31.636Z,6492
2017-08-10T13:38:33.465Z,5220
2017-08-10T13:39:35.360Z,4352
2017-08-10T13:40:37.258Z,4304
2017-08-10T13:41:39.179Z,4964
2017-08-10T13:42:53.333Z,5824
2017-08-10T13:43:55.229Z,6128
2017-08-10T13:44:57.140Z,6228
2017-08-10T13:45:59.031Z,6148
2017-08-10T13:47:00.861Z,5760
2017-08-10T13:48:02.694Z,5892
2017-08-10T13:49:04.599Z,6456
2017-08-10T13:50:06.498Z,6704
2017-08-10T13:51:08.388Z,6464
2017-08-10T13:52:22.595Z,5788
2017-08-10T13:53:24.464Z,6160
2017-08-10T13:54:26.358Z,6820
2017-08-10T13:55:28.263Z,6604
2017-08-10T13:56:30.110Z,6456
2017-08-10T13:57:31.939Z,7132
2017-08-10T13:58:33.831Z,6996
2017-08-10T13:59:35.731Z,6076
2017-08-10T14:00:37.630Z,5924
2017-08-10T14:01:51.823Z,5572
2017-08-10T14:02:53.713Z,5496
2017-08-10T14:03:55.604Z,5864
2017-08-10T14:04:57.513Z,5772
2017-08-10T14:05:59.338Z,5428
2017-08-10T14:07:01.178Z,4956
2017-08-10T14:08:03.070Z,5316
2017-08-10T14:09:04.972Z,5820
2017-08-10T14:10:06.871Z,6396
2017-08-10T14:11:21.094Z,6724
2017-08-10T14:12:23.007Z,7280
2017-08-10T14:13:24.907Z,7680
2017-08-10T14:14:26.803Z,8100
2017-08-10T14:15:28.633Z,8144
2017-08-10T14:16:30.472Z,7408
2017-08-10T14:17:32.380Z,7020
2017-08-10T14:18:34.278Z,5944
2017-08-10T14:19:36.179Z,5140